Time;durP1;ratioP1;P1;durP2;ratioP2;P2;SDS_P1;SDS_P2;PMS_P1;PMS_P2;Temp;Humidity;BMP_temperature;BMP_pressure;BME280_temperature;BME280_humidity;BME280_pressure;Samples;Min_cycle;Max_cycle;Signal;HPM_P1;HPM_P2
2022/10/28 00:00:20;;;;;;;;;8.25;6.00;;;;;19.84;60.71;101421.47;5054810;28;45371;-78
2022/10/28 00:02:46;;;;;;;;;7.25;5.50;;;;;19.81;60.45;101417.19;5036455;28;64745;-78
2022/10/28 00:05:11;;;;;;;;;5.75;5.75;;;;;19.81;60.68;101416.34;5037004;28;48063;-78
2022/10/28 00:07:36;;;;;;;;;5.00;5.00;;;;;19.76;60.74;101416.63;5036138;28;66711;-79
2022/10/28 00:10:02;;;;;;;;;6.75;5.75;;;;;19.73;60.52;101414.16;5054319;28;68831;-78
2022/10/28 00:12:27;;;;;;;;;6.50;5.00;;;;;19.71;60.58;101418.63;5054810;28;47436;-78
2022/10/28 00:14:53;;;;;;;;;8.00;5.25;;;;;19.70;61.05;101423.03;5035919;28;65238;-78
2022/10/28 00:17:18;;;;;;;;;7.75;5.00;;;;;19.70;60.56;101425.69;5055098;28;45251;-78
2022/10/28 00:19:43;;;;;;;;;9.00;5.00;;;;;19.65;61.12;101424.25;5054430;28;46288;-78
2022/10/28 00:22:09;;;;;;;;;8.75;5.75;;;;;19.62;60.87;101420.00;5054017;28;72486;-78
2022/10/28 00:24:34;;;;;;;;;7.25;6.00;;;;;19.61;61.42;101428.84;5055565;28;64069;-78
2022/10/28 00:26:59;;;;;;;;;5.00;5.00;;;;;19.59;61.10;101429.88;5040189;28;47768;-78
2022/10/28 00:29:24;;;;;;;;;6.50;4.00;;;;;19.55;60.83;101423.91;5057126;28;66851;-79
2022/10/28 00:31:51;;;;;;;;;7.00;6.00;;;;;19.55;61.41;101426.56;5058168;28;45416;-78
2022/10/28 00:34:18;;;;;;;;;8.00;4.00;;;;;19.51;61.43;101436.44;5058143;28;45987;-79
2022/10/28 00:36:44;;;;;;;;;5.00;3.50;;;;;19.47;61.30;101431.41;5058410;28;45398;-78
2022/10/28 00:39:18;;;;;;;;;7.25;6.25;;;;;19.46;61.69;101437.63;5058123;28;45377;-78
2022/10/28 00:41:46;;;;;;;;;5.75;3.00;;;;;19.44;61.56;101434.22;5058166;28;47467;-78
2022/10/28 00:44:36;;;;;;;;;8.00;6.00;;;;;19.42;61.95;101431.66;5039512;28;45332;-78
2022/10/28 00:47:03;;;;;;;;;9.25;6.50;;;;;19.39;61.79;101429.22;5058204;28;45418;-78
2022/10/28 00:49:31;;;;;;;;;7.75;6.00;;;;;19.38;61.86;101418.72;5040119;28;45487;-78
2022/10/28 00:52:01;;;;;;;;;7.25;6.75;;;;;19.35;61.52;101425.00;5039900;28;46599;-78
2022/10/28 00:54:27;;;;;;;;;7.00;6.00;;;;;19.33;61.78;101417.19;5039839;28;45405;-78
2022/10/28 00:56:54;;;;;;;;;8.00;6.00;;;;;19.31;61.82;101418.19;5040039;28;45390;-78
2022/10/28 00:59:29;;;;;;;;;5.75;5.00;;;;;19.29;62.34;101410.38;5057517;28;45357;-78
2022/10/28 01:01:55;;;;;;;;;5.25;4.75;;;;;19.26;62.70;101415.84;5039789;28;46199;-78
2022/10/28 01:04:21;;;;;;;;;6.50;4.25;;;;;19.21;62.02;101402.03;5057509;28;45343;-78
2022/10/28 01:06:47;;;;;;;;;5.00;5.00;;;;;19.17;62.68;101410.19;5039966;28;45447;-78
2022/10/28 01:09:12;;;;;;;;;11.25;6.75;;;;;19.12;62.53;101407.81;5039795;28;45296;-78
2022/10/28 01:11:47;;;;;;;;;6.50;5.75;;;;;19.09;62.59;101410.59;5056535;28;74708;-78
2022/10/28 01:14:49;;;;;;;;;7.00;5.75;;;;;19.07;62.85;101404.56;5039190;28;45739;-78
2022/10/28 01:17:43;;;;;;;;;5.25;5.00;;;;;19.06;63.12;101408.16;5039708;28;45459;-78
2022/10/28 01:20:26;;;;;;;;;6.00;6.00;;;;;19.04;63.07;101412.66;5057390;28;45444;-79
2022/10/28 01:23:10;;;;;;;;;6.50;5.50;;;;;19.01;63.00;101415.44;5057404;28;46365;-79
2022/10/28 01:26:05;;;;;;;;;6.00;5.00;;;;;18.97;63.17;101411.28;5039520;28;46500;-78
2022/10/28 01:28:48;;;;;;;;;5.00;5.00;;;;;18.94;63.87;101418.44;5057048;28;45336;-79
2022/10/28 01:31:34;;;;;;;;;7.25;5.25;;;;;18.91;63.56;101412.47;5057491;28;45458;-79
2022/10/28 01:34:06;;;;;;;;;6.50;6.00;;;;;18.89;63.79;101407.25;5057104;28;46708;-78
2022/10/28 01:36:37;;;;;;;;;6.75;5.25;;;;;18.88;63.91;101399.41;5039052;28;45732;-79
2022/10/28 01:39:08;;;;;;;;;6.25;5.75;;;;;18.85;63.96;101399.56;5057275;28;45448;-79
2022/10/28 01:41:37;;;;;;;;;6.75;5.25;;;;;18.79;63.30;101405.16;5056971;28;45307;-79
2022/10/28 01:44:12;;;;;;;;;9.00;5.75;;;;;18.75;63.59;101405.31;5038914;28;45534;-79
2022/10/28 01:46:45;;;;;;;;;7.25;5.75;;;;;18.73;63.92;101401.06;5039158;28;45764;-79
2022/10/28 01:49:43;;;;;;;;;5.00;5.00;;;;;18.69;63.97;101396.88;5057133;28;45253;-78
2022/10/28 01:52:12;;;;;;;;;7.50;6.00;;;;;18.65;64.23;101390.91;5056712;28;45538;-78
2022/10/28 01:54:38;;;;;;;;;5.00;5.00;;;;;18.63;64.63;101389.28;5056730;28;46416;-79
2022/10/28 01:57:04;;;;;;;;;10.00;7.00;;;;;18.60;64.44;101390.28;5038558;28;45690;-79
2022/10/28 01:59:30;;;;;;;;;6.50;5.50;;;;;18.59;64.62;101391.25;5056963;28;45327;-78
2022/10/28 02:01:56;;;;;;;;;11.00;7.00;;;;;18.55;64.29;101395.81;5056082;28;67063;-79
2022/10/28 02:04:21;;;;;;;;;7.50;6.75;;;;;18.54;64.98;101393.25;5056733;28;45271;-79
2022/10/28 02:06:49;;;;;;;;;8.50;5.75;;;;;18.53;64.65;101388.91;5038537;28;45459;-79
2022/10/28 02:09:27;;;;;;;;;8.75;5.50;;;;;18.49;64.63;101392.63;5038783;28;45428;-79
2022/10/28 02:12:19;;;;;;;;;9.25;6.00;;;;;18.45;64.80;101381.41;5038321;28;45331;-79
2022/10/28 02:14:56;;;;;;;;;8.00;6.75;;;;;18.41;64.85;101384.28;5056478;28;47046;-79
2022/10/28 02:17:54;;;;;;;;;8.00;6.00;;;;;18.36;65.14;101390.63;5056431;28;45264;-78
2022/10/28 02:20:34;;;;;;;;;12.00;7.00;;;;;18.31;64.87;101384.75;5034910;28;45445;-78
2022/10/28 02:23:05;;;;;;;;;7.00;6.75;;;;;18.28;65.32;101378.78;5035122;28;45546;-78
2022/10/28 02:25:35;;;;;;;;;8.00;6.50;;;;;18.27;65.69;101375.28;5036026;28;45287;-78
2022/10/28 02:28:08;;;;;;;;;7.50;6.50;;;;;18.26;65.52;101378.03;5035079;28;45401;-79
2022/10/28 02:30:38;;;;;;;;;7.00;6.00;;;;;18.25;65.48;101374.50;5052092;28;45395;-79
2022/10/28 02:33:05;;;;;;;;;6.75;6.00;;;;;18.25;65.60;101369.25;5036270;28;45382;-79
2022/10/28 02:35:42;;;;;;;;;6.00;5.75;;;;;18.24;65.61;101374.59;5033589;28;45383;-79
2022/10/28 02:38:16;;;;;;;;;7.00;7.00;;;;;18.23;65.46;101368.47;5031526;28;45413;-79
2022/10/28 02:40:46;;;;;;;;;10.00;6.00;;;;;18.21;65.84;101372.13;5031386;28;45375;-79
2022/10/28 02:43:13;;;;;;;;;8.75;5.75;;;;;18.21;65.92;101372.13;5017445;28;45333;-79
2022/10/28 02:45:45;;;;;;;;;6.00;5.00;;;;;18.20;65.54;101373.88;5033854;28;70056;-78
2022/10/28 02:48:16;;;;;;;;;10.00;6.50;;;;;18.18;66.06;101371.34;5034054;28;45713;-79
2022/10/28 02:50:45;;;;;;;;;7.75;6.00;;;;;18.20;66.04;101373.88;5034904;28;45420;-79
2022/10/28 02:53:15;;;;;;;;;10.00;4.00;;;;;18.21;65.60;101375.59;5034867;28;45558;-79
2022/10/28 02:55:43;;;;;;;;;9.75;6.00;;;;;18.21;66.31;101378.25;5034132;28;46840;-79
2022/10/28 02:58:09;;;;;;;;;8.75;7.25;;;;;18.21;65.76;101369.50;5017740;28;45780;-79
2022/10/28 03:00:34;;;;;;;;;5.50;5.00;;;;;18.20;66.14;101363.34;5033686;28;70173;-79
2022/10/28 03:02:59;;;;;;;;;7.75;7.00;;;;;18.18;65.71;101367.84;5033622;28;70324;-79
2022/10/28 03:05:25;;;;;;;;;6.50;5.50;;;;;18.18;65.65;101374.00;5033524;28;70610;-79
2022/10/28 03:07:50;;;;;;;;;8.00;5.00;;;;;18.21;65.88;101383.50;5033553;28;73665;-79
2022/10/28 03:10:15;;;;;;;;;6.50;6.50;;;;;18.22;66.40;101366.78;5034641;28;62481;-79
2022/10/28 03:12:41;;;;;;;;;5.75;4.25;;;;;18.23;65.61;101365.00;5035399;28;56457;-79
2022/10/28 03:15:06;;;;;;;;;5.75;5.75;;;;;18.22;66.00;101358.00;5034489;28;73618;-79
2022/10/28 03:17:32;;;;;;;;;10.25;4.25;;;;;18.22;65.71;101355.38;5035566;28;45343;-79
2022/10/28 03:19:57;;;;;;;;;5.25;4.75;;;;;18.22;66.46;101360.63;5046261;28;68129;-79
2022/10/28 03:22:22;;;;;;;;;8.75;5.75;;;;;18.21;66.10;101365.06;5054691;28;67526;-79
2022/10/28 03:24:48;;;;;;;;;5.75;5.25;;;;;18.21;66.21;101351.03;5054349;28;74766;-79
2022/10/28 03:27:13;;;;;;;;;6.00;5.00;;;;;18.19;66.21;101346.69;5053306;28;69314;-79
2022/10/28 03:29:38;;;;;;;;;6.75;5.00;;;;;18.18;65.89;101342.38;5036793;28;66604;-79
2022/10/28 03:32:04;;;;;;;;;6.75;5.00;;;;;18.18;66.30;101342.38;5054811;28;67271;-79
2022/10/28 03:34:29;;;;;;;;;8.00;6.75;;;;;18.18;66.17;101338.88;5055264;28;46037;-79
2022/10/28 03:36:55;;;;;;;;;7.00;5.00;;;;;18.16;65.94;101341.59;5054803;28;58608;-79
2022/10/28 03:39:20;;;;;;;;;9.25;6.00;;;;;18.16;66.29;101340.72;5036053;28;66609;-78
2022/10/28 03:41:45;;;;;;;;;9.00;6.25;;;;;18.16;66.64;101344.25;5054648;28;62880;-79
2022/10/28 03:44:11;;;;;;;;;7.75;5.00;;;;;18.14;66.58;101335.53;5054200;28;70155;-79
2022/10/28 03:46:36;;;;;;;;;8.50;5.75;;;;;18.12;66.25;101337.41;5053160;28;67784;-79
2022/10/28 03:49:01;;;;;;;;;7.25;4.50;;;;;18.11;66.22;101332.22;5054564;28;65559;-79
2022/10/28 03:51:27;;;;;;;;;4.25;4.25;;;;;18.09;66.29;101336.69;5055340;28;45430;-79
2022/10/28 03:53:52;;;;;;;;;5.00;5.00;;;;;18.04;66.51;101328.19;5054871;28;46190;-78
2022/10/28 03:56:17;;;;;;;;;7.25;6.50;;;;;18.03;66.56;101324.69;5054627;28;58340;-79
2022/10/28 03:58:43;;;;;;;;;6.25;5.00;;;;;18.01;66.45;101326.56;5036531;28;64409;-78
2022/10/28 04:01:08;;;;;;;;;5.50;4.25;;;;;17.98;66.43;101314.41;5057495;28;45381;-79
2022/10/28 04:03:33;;;;;;;;;7.25;6.00;;;;;17.96;66.70;101315.44;5058646;28;46237;-79
2022/10/28 04:05:59;;;;;;;;;8.00;5.50;;;;;17.94;66.37;101323.41;5057813;28;70721;-79
2022/10/28 04:08:24;;;;;;;;;7.00;4.00;;;;;17.92;66.99;101321.75;5057660;28;57048;-79
2022/10/28 04:10:49;;;;;;;;;7.25;6.75;;;;;17.93;66.69;101324.31;5056906;28;52983;-78
2022/10/28 04:13:15;;;;;;;;;9.75;6.00;;;;;17.93;66.54;101324.31;5040428;28;46554;-79
2022/10/28 04:15:41;;;;;;;;;5.25;2.50;;;;;17.94;66.75;101331.31;5040495;28;45406;-79
2022/10/28 04:18:07;;;;;;;;;9.75;4.50;;;;;17.92;66.91;101338.44;5040627;28;45297;-79
2022/10/28 04:20:32;;;;;;;;;7.25;6.00;;;;;17.92;66.59;101333.16;5057337;28;68854;-79
2022/10/28 04:22:57;;;;;;;;;8.25;6.00;;;;;17.91;66.89;101338.50;5039940;28;47312;-79
2022/10/28 04:25:24;;;;;;;;;8.00;6.50;;;;;17.90;66.89;101320.97;5057506;28;72271;-79
2022/10/28 04:27:50;;;;;;;;;7.00;5.75;;;;;17.91;66.91;101325.34;5058389;28;45163;-79
2022/10/28 04:30:16;;;;;;;;;7.00;5.00;;;;;17.92;66.81;101330.53;5040381;28;45438;-79
2022/10/28 04:32:42;;;;;;;;;9.25;6.00;;;;;17.94;67.00;101333.06;5058024;28;46225;-79
2022/10/28 04:35:08;;;;;;;;;5.50;5.50;;;;;17.94;66.86;101326.03;5058094;28;45512;-79
2022/10/28 04:37:34;;;;;;;;;6.75;5.75;;;;;17.95;66.79;101325.09;5057913;28;45478;-78
2022/10/28 04:39:59;;;;;;;;;7.00;6.00;;;;;17.96;66.56;101325.97;5040045;28;45543;-79
2022/10/28 04:42:24;;;;;;;;;5.25;4.50;;;;;17.98;66.48;101321.47;5057338;28;63313;-79
2022/10/28 04:44:50;;;;;;;;;8.25;6.00;;;;;17.99;66.33;101326.63;5057687;28;45351;-79
2022/10/28 04:47:16;;;;;;;;;7.50;5.25;;;;;18.02;66.45;101324.78;5058315;28;45356;-79
2022/10/28 04:49:41;;;;;;;;;5.00;4.25;;;;;18.03;66.52;101315.94;5058185;28;45477;-79
2022/10/28 04:52:06;;;;;;;;;5.50;5.50;;;;;18.03;66.39;101316.78;5057422;28;46195;-79
2022/10/28 04:54:32;;;;;;;;;6.00;6.00;;;;;18.05;66.11;101324.63;5057402;28;60646;-79
2022/10/28 04:56:57;;;;;;;;;9.25;5.25;;;;;18.05;66.19;101320.19;5056845;28;69525;-79
2022/10/28 04:59:22;;;;;;;;;6.00;5.00;;;;;18.06;66.12;101321.91;5056900;28;67785;-79
2022/10/28 05:01:48;;;;;;;;;7.50;5.75;;;;;18.07;66.36;101325.38;5056639;28;74781;-78
2022/10/28 05:04:13;;;;;;;;;9.75;6.50;;;;;18.05;65.98;101316.72;5056689;28;73111;-79
2022/10/28 05:06:38;;;;;;;;;7.50;4.00;;;;;18.01;65.91;101318.66;5056504;28;69485;-79
2022/10/28 05:09:04;;;;;;;;;12.50;6.00;;;;;17.99;66.43;101310.81;5056785;28;67510;-78
2022/10/28 05:11:29;;;;;;;;;5.00;5.00;;;;;17.96;66.17;101307.53;5055936;28;75690;-78
2022/10/28 05:13:54;;;;;;;;;9.00;5.00;;;;;17.96;66.02;101312.78;5039713;28;45357;-78
2022/10/28 05:16:20;;;;;;;;;5.75;5.75;;;;;17.97;66.18;101312.69;5057687;28;45746;-78
2022/10/28 05:18:45;;;;;;;;;7.25;5.50;;;;;17.98;65.53;101317.03;5056918;28;51316;-79
2022/10/28 05:21:11;;;;;;;;;6.75;4.75;;;;;18.01;65.15;101320.44;5056029;28;74395;-78
2022/10/28 05:23:36;;;;;;;;;7.50;4.00;;;;;18.05;65.71;101311.44;5056782;28;61489;-79
2022/10/28 05:26:01;;;;;;;;;7.00;5.00;;;;;18.06;65.30;101316.66;5056844;28;62790;-79
2022/10/28 05:28:27;;;;;;;;;4.50;4.50;;;;;18.05;65.50;101325.47;5056647;28;64727;-79
2022/10/28 05:30:52;;;;;;;;;8.50;4.25;;;;;18.06;65.25;101315.81;5057271;28;46200;-78
2022/10/28 05:33:17;;;;;;;;;10.25;5.00;;;;;18.07;64.92;101314.84;5056540;28;66248;-79
2022/10/28 05:35:43;;;;;;;;;7.00;5.00;;;;;18.08;64.92;101317.41;5056771;28;45417;-79
2022/10/28 05:38:08;;;;;;;;;6.75;5.00;;;;;18.08;64.89;101333.22;5056842;28;47893;-78
2022/10/28 05:40:33;;;;;;;;;8.25;5.00;;;;;18.09;64.56;101324.41;5056996;28;46114;-79
2022/10/28 05:43:00;;;;;;;;;8.25;5.00;;;;;18.11;64.74;101317.25;5056091;28;66664;-78
2022/10/28 05:45:25;;;;;;;;;5.00;5.00;;;;;18.11;64.60;101322.53;5057136;28;45412;-79
2022/10/28 05:47:50;;;;;;;;;13.25;6.25;;;;;18.12;64.23;101316.31;5057032;28;45351;-78
2022/10/28 05:50:17;;;;;;;;;8.25;4.50;;;;;18.14;64.17;101305.72;5056559;28;45374;-79
2022/10/28 05:52:47;;;;;;;;;9.25;7.00;;;;;18.13;64.13;101318.03;5039011;28;45756;-77
2022/10/28 05:55:12;;;;;;;;;6.00;5.00;;;;;18.16;64.09;101314.38;5057159;28;45508;-76
2022/10/28 05:57:38;;;;;;;;;8.00;5.25;;;;;18.15;64.05;101321.44;5056805;28;45554;-76
2022/10/28 06:00:04;;;;;;;;;6.75;6.00;;;;;18.17;64.00;101324.00;5055917;28;71597;-77
2022/10/28 06:02:29;;;;;;;;;5.00;5.00;;;;;18.16;63.77;101320.53;5056298;28;45629;-76
2022/10/28 06:04:54;;;;;;;;;8.50;6.25;;;;;18.17;64.03;101321.38;5055987;28;64237;-77
2022/10/28 06:07:20;;;;;;;;;9.00;6.00;;;;;18.16;63.49;101325.78;5055864;28;68268;-76
2022/10/28 06:09:45;;;;;;;;;7.25;4.00;;;;;18.16;63.58;101327.56;5056066;28;56895;-76
2022/10/28 06:12:10;;;;;;;;;6.75;5.00;;;;;18.16;63.49;101330.19;5055225;28;45602;-76
2022/10/28 06:14:36;;;;;;;;;5.50;5.25;;;;;18.17;63.76;101332.75;5056798;28;45373;-76
2022/10/28 06:17:01;;;;;;;;;7.50;6.00;;;;;18.17;63.38;101326.63;5056463;28;45396;-76
2022/10/28 06:19:26;;;;;;;;;6.75;5.00;;;;;18.16;63.63;101328.44;5055402;28;60448;-76
2022/10/28 06:21:52;;;;;;;;;7.75;3.00;;;;;18.16;63.42;101338.97;5055120;28;48195;-77
2022/10/28 06:24:17;;;;;;;;;6.00;6.00;;;;;18.16;63.49;101336.34;5055618;28;45500;-76
2022/10/28 06:26:42;;;;;;;;;6.75;6.75;;;;;18.13;63.24;101333.84;5063604;28;67265;-76
2022/10/28 06:29:11;;;;;;;;;7.00;4.00;;;;;18.14;63.53;101345.22;5067182;28;68175;-77
2022/10/28 06:31:39;;;;;;;;;5.50;5.50;;;;;18.13;63.60;101344.38;5053731;28;45916;-76
2022/10/28 06:34:07;;;;;;;;;6.25;4.25;;;;;18.14;63.31;101350.50;5056126;28;45456;-77
2022/10/28 06:36:32;;;;;;;;;5.50;5.00;;;;;18.14;63.32;101343.44;5056317;28;45356;-77
2022/10/28 06:38:58;;;;;;;;;5.00;5.00;;;;;18.15;62.75;101352.22;5037958;28;47222;-77
2022/10/28 06:41:23;;;;;;;;;9.75;6.00;;;;;18.21;62.57;101335.25;5037976;28;45387;-76
2022/10/28 06:43:49;;;;;;;;;9.75;5.75;;;;;18.24;62.98;101341.22;5056136;28;45267;-76
2022/10/28 06:46:14;;;;;;;;;6.50;5.50;;;;;18.25;62.70;101356.06;5055775;28;45327;-77
2022/10/28 06:48:39;;;;;;;;;7.00;5.50;;;;;18.25;62.70;101356.06;5055905;28;47392;-76
2022/10/28 06:51:05;;;;;;;;;6.50;6.00;;;;;18.25;63.13;101361.34;5056022;28;45383;-76
2022/10/28 06:53:30;;;;;;;;;4.75;4.75;;;;;18.25;62.47;101369.25;5037024;28;67865;-77
2022/10/28 06:55:57;;;;;;;;;6.25;5.00;;;;;18.25;62.88;101376.31;5056041;28;45291;-76
2022/10/28 06:58:23;;;;;;;;;6.00;5.00;;;;;18.26;62.87;101375.38;5055548;28;46173;-76
2022/10/28 07:00:49;;;;;;;;;5.25;5.00;;;;;18.27;62.36;101379.72;5037453;28;45323;-76
2022/10/28 07:03:15;;;;;;;;;6.50;5.00;;;;;18.27;62.43;101377.91;5038071;28;45389;-76
2022/10/28 07:05:40;;;;;;;;;8.25;5.00;;;;;18.27;62.39;101379.72;5055859;28;45435;-77
2022/10/28 07:08:06;;;;;;;;;6.00;4.75;;;;;18.29;62.82;101396.28;5055610;28;46148;-77
2022/10/28 07:10:31;;;;;;;;;6.75;5.00;;;;;18.30;62.43;101403.28;5054820;28;71590;-76
2022/10/28 07:12:57;;;;;;;;;9.25;5.25;;;;;18.33;62.52;101406.63;5055789;28;45307;-75
2022/10/28 07:15:22;;;;;;;;;5.50;5.50;;;;;18.36;62.43;101409.06;5055574;28;45505;-75
2022/10/28 07:17:54;;;;;;;;;5.50;4.50;;;;;18.40;61.99;101408.94;5054580;28;70816;-74
2022/10/28 07:20:19;;;;;;;;;5.75;5.75;;;;;18.44;62.42;101406.03;5054096;28;45752;-75
2022/10/28 07:22:45;;;;;;;;;5.75;5.50;;;;;18.49;61.96;101411.09;5055654;28;45379;-76
2022/10/28 07:25:13;;;;;;;;;10.50;7.25;;;;;18.55;61.76;101419.56;5054755;28;68085;-76
2022/10/28 07:27:38;;;;;;;;;6.50;6.25;;;;;18.64;61.41;101420.00;5054597;28;68962;-77
2022/10/28 07:30:04;;;;;;;;;7.25;4.25;;;;;18.73;61.20;101411.59;5054385;28;66906;-74
2022/10/28 07:32:31;;;;;;;;;9.50;6.00;;;;;18.84;60.91;101434.81;5055713;28;45331;-75
2022/10/28 07:34:56;;;;;;;;;5.75;5.50;;;;;18.95;60.79;101429.81;5040868;28;45356;-74
2022/10/28 07:37:22;;;;;;;;;5.50;3.75;;;;;19.01;59.51;101424.22;5057928;28;76544;-75
2022/10/28 07:39:47;;;;;;;;;6.00;5.00;;;;;19.12;59.26;101413.94;5058316;28;60814;-75
2022/10/28 07:42:12;;;;;;;;;7.00;4.00;;;;;19.31;58.63;101434.88;5041220;28;45472;-74
2022/10/28 07:44:38;;;;;;;;;5.75;5.00;;;;;19.45;58.10;101446.50;5058496;28;45341;-75
2022/10/28 07:47:03;;;;;;;;;6.25;4.50;;;;;19.59;58.44;101428.09;5058786;28;46326;-76
2022/10/28 07:49:29;;;;;;;;;10.50;5.00;;;;;19.70;57.84;101438.06;5058053;28;68775;-76
2022/10/28 07:51:54;;;;;;;;;8.75;5.00;;;;;19.80;57.21;101441.91;5059143;28;45390;-76
2022/10/28 07:54:20;;;;;;;;;8.00;6.00;;;;;19.97;56.92;101455.97;5040665;28;46678;-76
2022/10/28 07:56:45;;;;;;;;;6.25;5.50;;;;;20.09;56.15;101461.38;5058038;28;68277;-76
2022/10/28 07:59:10;;;;;;;;;7.00;5.00;;;;;20.21;56.44;101453.69;5057293;28;69242;-76
2022/10/28 08:01:36;;;;;;;;;6.25;4.25;;;;;20.30;55.60;101448.72;5057837;28;69132;-76
2022/10/28 08:04:01;;;;;;;;;10.50;5.75;;;;;20.42;55.82;101457.72;5058620;28;46615;-76
2022/10/28 08:06:26;;;;;;;;;5.00;4.00;;;;;20.54;55.35;101461.44;5057375;28;75214;-76
2022/10/28 08:08:54;;;;;;;;;8.00;2.00;;;;;20.62;55.51;101461.84;5057683;28;71820;-76
2022/10/28 08:11:22;;;;;;;;;7.00;4.00;;;;;20.69;55.50;101468.50;5058587;28;45402;-76
2022/10/28 08:13:48;;;;;;;;;7.75;4.50;;;;;20.74;54.92;101481.44;5058335;28;45370;-76
2022/10/28 08:16:13;;;;;;;;;5.00;4.75;;;;;20.77;54.60;101480.41;5058151;28;46542;-76
2022/10/28 08:18:39;;;;;;;;;4.00;2.00;;;;;20.78;54.43;101477.69;5058241;28;45394;-76
2022/10/28 08:21:06;;;;;;;;;6.00;2.00;;;;;20.80;54.14;101477.56;5058573;28;45389;-76
2022/10/28 08:23:31;;;;;;;;;7.50;6.50;;;;;20.85;54.07;101478.13;5058435;28;45298;-76
2022/10/28 08:25:57;;;;;;;;;10.50;6.00;;;;;20.94;54.23;101493.47;5057289;28;74625;-76
2022/10/28 08:28:23;;;;;;;;;6.25;5.50;;;;;20.99;53.54;101490.56;5039904;28;45291;-76
2022/10/28 08:30:49;;;;;;;;;7.00;6.75;;;;;21.05;53.91;101493.66;5056946;28;45335;-76
2022/10/28 08:33:14;;;;;;;;;10.50;6.50;;;;;21.08;53.79;101490.00;5040465;28;45320;-76
2022/10/28 08:35:40;;;;;;;;;8.75;5.50;;;;;21.11;53.23;101500.38;5057352;28;61126;-76
2022/10/28 08:38:05;;;;;;;;;3.50;3.50;;;;;21.14;53.27;101497.53;5058120;28;45327;-76
2022/10/28 08:40:42;;;;;;;;;10.50;7.00;;;;;21.18;53.36;101504.34;5058179;28;45295;-75
2022/10/28 08:43:33;;;;;;;;;6.25;4.75;;;;;21.22;53.30;101505.00;5039549;28;45481;-75
2022/10/28 08:46:14;;;;;;;;;7.50;4.75;;;;;21.25;53.83;101510.97;5053669;28;46058;-75
2022/10/28 08:48:40;;;;;;;;;6.00;5.00;;;;;21.35;54.75;101529.78;5056693;28;45410;-76
2022/10/28 08:51:16;;;;;;;;;7.00;5.50;;;;;21.41;53.74;101529.41;5057818;28;45571;-75
2022/10/28 08:53:57;;;;;;;;;8.00;6.50;;;;;21.45;53.40;101530.97;5040085;28;45406;-75
2022/10/28 08:56:45;;;;;;;;;7.25;3.00;;;;;21.40;52.78;101535.66;5039656;28;47338;-76
2022/10/28 08:59:16;;;;;;;;;6.50;3.50;;;;;21.36;52.78;101539.44;5040262;28;45818;-75
2022/10/28 09:01:47;;;;;;;;;2.00;2.00;;;;;21.32;53.22;101542.34;5039937;28;45440;-76
2022/10/28 09:04:39;;;;;;;;;7.00;7.00;;;;;21.33;53.36;101547.56;5039860;28;45383;-75
2022/10/28 09:07:17;;;;;;;;;7.50;5.50;;;;;21.35;52.95;101548.31;5050603;28;46280;-75
2022/10/28 09:09:52;;;;;;;;;6.50;5.75;;;;;21.39;53.51;101530.44;5057607;28;45850;-75
2022/10/28 09:12:42;;;;;;;;;10.75;5.50;;;;;21.39;52.48;101541.03;5039234;28;45369;-75
2022/10/28 09:15:26;;;;;;;;;10.50;7.00;;;;;21.38;52.65;101548.13;5039650;28;45443;-75
2022/10/28 09:17:58;;;;;;;;;7.75;6.50;;;;;21.40;53.12;101548.03;5039619;28;46203;-75
2022/10/28 09:20:45;;;;;;;;;12.50;5.75;;;;;21.45;53.06;101559.22;5057061;28;45517;-76
2022/10/28 09:23:20;;;;;;;;;12.25;6.75;;;;;21.49;52.76;101552.81;5057483;28;45365;-75
2022/10/28 09:26:07;;;;;;;;;8.25;6.00;;;;;21.54;53.19;101558.66;5039158;28;45439;-75
2022/10/28 09:28:57;;;;;;;;;4.75;4.75;;;;;21.62;53.11;101571.44;5057288;28;46354;-75
2022/10/28 09:31:22;;;;;;;;;8.00;7.25;;;;;21.63;52.58;101573.13;5057178;28;45751;-75
2022/10/28 09:33:50;;;;;;;;;7.67;5.67;;;;;21.61;52.93;101575.03;5057233;28;45273;-75
2022/10/28 09:36:37;;;;;;;;;6.00;5.75;;;;;21.68;53.23;101576.34;5057042;28;45354;-75
2022/10/28 09:39:04;;;;;;;;;9.00;7.50;;;;;21.76;53.41;101578.50;5038871;28;47232;-76
2022/10/28 09:41:35;;;;;;;;;9.50;6.00;;;;;21.87;53.00;101581.34;5022003;28;45663;-75
2022/10/28 09:44:25;;;;;;;;;7.50;6.75;;;;;22.01;52.59;101580.47;5038949;28;45367;-75
2022/10/28 09:46:54;;;;;;;;;11.00;6.50;;;;;22.07;52.57;101573.94;5056909;28;45534;-75
2022/10/28 09:49:24;;;;;;;;;7.00;5.75;;;;;22.13;52.87;101569.06;5056904;28;48857;-75
2022/10/28 09:51:53;;;;;;;;;10.75;6.75;;;;;22.20;52.27;101567.72;5038899;28;45324;-75
2022/10/28 09:54:23;;;;;;;;;10.50;6.00;;;;;22.27;52.19;101570.00;5055134;28;45339;-76
2022/10/28 09:56:50;;;;;;;;;10.50;5.25;;;;;22.36;52.09;101578.22;5038052;28;45408;-75
2022/10/28 09:59:15;;;;;;;;;11.50;6.50;;;;;22.46;51.82;101570.50;5055693;28;74219;-76
2022/10/28 10:01:41;;;;;;;;;7.00;5.50;;;;;22.51;51.87;101578.13;5038502;28;45380;-76
2022/10/28 10:04:21;;;;;;;;;12.25;6.00;;;;;22.57;51.37;101586.56;5038919;28;45390;-76
2022/10/28 10:06:53;;;;;;;;;5.00;5.00;;;;;22.65;51.41;101596.66;5038698;28;45321;-76
2022/10/28 10:09:29;;;;;;;;;10.75;7.00;;;;;22.70;51.80;101599.03;5053255;28;45394;-75
2022/10/28 10:11:58;;;;;;;;;8.50;7.25;;;;;22.78;51.39;101599.34;5038364;28;45659;-75
2022/10/28 10:14:28;;;;;;;;;8.00;7.00;;;;;22.84;51.27;101592.78;5038835;28;45486;-75
2022/10/28 10:17:04;;;;;;;;;9.25;7.00;;;;;22.84;51.19;101604.25;5035014;28;45327;-75
2022/10/28 10:20:04;;;;;;;;;10.00;5.25;;;;;22.84;51.33;101606.03;5054825;28;47318;-75
2022/10/28 10:22:35;;;;;;;;;9.25;7.00;;;;;22.90;51.19;101609.16;5055399;28;45438;-75
2022/10/28 10:25:03;;;;;;;;;8.00;7.50;;;;;22.94;51.23;101613.28;5054948;28;45492;-76
2022/10/28 10:27:29;;;;;;;;;9.00;6.00;;;;;22.96;50.62;101619.34;5056646;28;45405;-76
2022/10/28 10:29:56;;;;;;;;;8.75;5.75;;;;;23.00;50.99;101618.19;5056046;28;46062;-76
2022/10/28 10:32:26;;;;;;;;;6.25;5.75;;;;;23.14;51.21;101619.94;5037586;28;45344;-78
2022/10/28 10:34:57;;;;;;;;;7.75;5.50;;;;;23.29;51.06;101610.09;5038105;28;45455;-77
2022/10/28 10:37:23;;;;;;;;;10.75;6.00;;;;;23.38;50.22;101609.44;5038422;28;45422;-78
2022/10/28 10:40:02;;;;;;;;;7.00;6.00;;;;;23.46;50.60;101616.00;5055787;28;46043;-77
2022/10/28 10:42:27;;;;;;;;;9.75;6.50;;;;;23.61;51.24;101612.31;5056184;28;45397;-78
2022/10/28 10:45:02;;;;;;;;;9.75;6.25;;;;;23.79;49.96;101615.47;5056024;28;45461;-78
2022/10/28 10:47:30;;;;;;;;;9.25;6.50;;;;;23.89;49.83;101615.69;5038024;28;45665;-78
2022/10/28 10:50:19;;;;;;;;;8.25;5.00;;;;;24.05;49.51;101626.06;5056288;28;46032;-77
2022/10/28 10:52:50;;;;;;;;;9.00;6.75;;;;;24.28;49.57;101627.91;5055654;28;45669;-77
2022/10/28 10:55:33;;;;;;;;;11.00;7.75;;;;;24.52;48.92;101632.44;5038234;28;45405;-77
2022/10/28 10:57:59;;;;;;;;;7.50;6.00;;;;;24.73;48.55;101637.97;5038204;28;45488;-78
2022/10/28 11:00:31;;;;;;;;;9.25;6.75;;;;;25.05;48.25;101637.34;5037823;28;47137;-78
2022/10/28 11:02:56;;;;;;;;;8.25;6.00;;;;;25.56;48.00;101645.00;5038005;28;45860;-77
2022/10/28 11:05:22;;;;;;;;;8.00;6.00;;;;;26.26;47.25;101643.00;5037134;28;69425;-78
2022/10/28 11:07:49;;;;;;;;;11.25;6.50;;;;;26.94;44.53;101645.47;5036935;28;45431;-78
2022/10/28 11:10:24;;;;;;;;;12.75;9.00;;;;;27.39;44.60;101646.06;5037748;28;45444;-77
2022/10/28 11:12:55;;;;;;;;;6.25;6.00;;;;;27.69;43.58;101657.78;5037757;28;45336;-78
2022/10/28 11:15:25;;;;;;;;;8.25;6.50;;;;;27.87;42.51;101665.16;5055871;28;45519;-77
2022/10/28 11:18:03;;;;;;;;;11.50;6.00;;;;;28.08;41.53;101663.31;5055766;28;45467;-77
2022/10/28 11:20:54;;;;;;;;;6.00;5.75;;;;;28.42;42.37;101679.00;5037350;28;46135;-78
2022/10/28 11:23:41;;;;;;;;;10.00;9.00;;;;;29.11;41.64;101679.91;5055140;28;45374;-78
2022/10/28 11:26:09;;;;;;;;;6.25;5.25;;;;;29.67;41.05;101671.03;5055674;28;45505;-78
2022/10/28 11:29:09;;;;;;;;;7.00;5.75;;;;;30.23;39.24;101679.97;5037716;28;45558;-78
2022/10/28 11:31:43;;;;;;;;;9.00;6.00;;;;;30.65;37.92;101683.97;5037602;28;47166;-78
2022/10/28 11:34:14;;;;;;;;;7.00;6.75;;;;;30.85;37.29;101666.69;5037628;28;45923;-77